Search for airport 
image banner adimage banner adimage banner ad
image banner ad

1Q5 - Gravelly Valley

Located in Upper Lake, United States

ICAO - 1Q5, IATA -

Data provided by Airmate  

General information

Coordinates: N39°27'3" W122°57'17"
Elevation is 1900 feet MSL.
Magnetic variation is 17° East
View others Airports in California

Operational data

Special qualification required
Current time UTC:
Current local time:
Weather at : KUKI - Ukiah Muni ( 42 km )
METAR: KUKI 292056Z AUTO 15008KT 10SM CLR 41/10 A2985 RMK AO2 SLP097 T04060100 56022
TAF: KUKI 291731Z 2918/3018 22007KT P6SM SKC FM292200 27009G18KT P6SM SKC FM300200 VRB03KT P6SM SKC
View NOTAMs / SUP AIP / TFR affecting this airport [VIEW]
Communications frequencies: [VIEW]

Runways:

RWY identifierQFULength (ft)Width (ft)SurfaceLDA (ft)
014050200GRAVEL
194050200GRAVEL

Airport contact information

Address: Upper Lake United States

Satellite view of 1Q5